Time;durP1;ratioP1;P1;durP2;ratioP2;P2;SDS_P1;SDS_P2;PMS_P1;PMS_P2;Temp;Humidity;BMP_temperature;BMP_pressure;BME280_temperature;BME280_humidity;BME280_pressure;Samples;Min_cycle;Max_cycle;Signal;HPM_P1;HPM_P2
2023/09/24 00:02:31;;;;;;;5.75;4.30;;;15.50;99.90;;;;;;5074102;28;20360;-68
2023/09/24 00:05:22;;;;;;;5.32;4.47;;;15.50;99.90;;;;;;5078355;28;20307;-67
2023/09/24 00:08:10;;;;;;;7.03;4.82;;;15.50;99.90;;;;;;5073888;28;20552;-67
2023/09/24 00:10:59;;;;;;;6.13;4.75;;;15.50;99.90;;;;;;5076106;28;20250;-67
2023/09/24 00:13:48;;;;;;;5.25;4.32;;;15.50;99.90;;;;;;5070470;28;20316;-68
2023/09/24 00:16:38;;;;;;;6.93;4.93;;;15.60;99.90;;;;;;5073482;28;20773;-68
2023/09/24 00:19:27;;;;;;;5.38;4.78;;;15.60;99.90;;;;;;5075268;28;20390;-68
2023/09/24 00:22:17;;;;;;;8.10;4.70;;;15.60;99.90;;;;;;5079307;28;20235;-69
2023/09/24 00:25:07;;;;;;;6.20;4.47;;;15.50;99.90;;;;;;5074666;28;20693;-67
2023/09/24 00:27:56;;;;;;;6.22;4.20;;;15.60;99.90;;;;;;5092065;27;20273;-67
2023/09/24 00:30:46;;;;;;;6.28;4.70;;;15.50;99.90;;;;;;5067372;28;20220;-69
2023/09/24 00:33:34;;;;;;;4.88;4.32;;;15.50;99.90;;;;;;5067977;28;20309;-68
2023/09/24 00:36:23;;;;;;;6.30;4.15;;;15.50;99.90;;;;;;5075233;28;20227;-68
2023/09/24 00:39:15;;;;;;;6.30;4.22;;;15.40;99.90;;;;;;5098456;27;20645;-67
2023/09/24 00:42:05;;;;;;;5.18;4.53;;;15.50;99.90;;;;;;5102180;27;20645;-68
2023/09/24 00:44:55;;;;;;;8.23;4.50;;;15.40;99.90;;;;;;5077627;28;20388;-69
2023/09/24 00:47:47;;;;;;;5.35;4.35;;;15.50;99.90;;;;;;5065791;28;20236;-67
2023/09/24 00:50:41;;;;;;;5.03;4.30;;;15.50;99.90;;;;;;5074148;28;20307;-68
2023/09/24 00:53:33;;;;;;;5.28;4.13;;;15.50;99.90;;;;;;5076275;28;20266;-67
2023/09/24 00:56:24;;;;;;;6.25;4.30;;;15.40;99.90;;;;;;5077060;28;20231;-69
2023/09/24 00:59:15;;;;;;;7.05;4.75;;;15.50;99.90;;;;;;5073915;28;20279;-68
2023/09/24 01:02:05;;;;;;;5.45;3.97;;;15.50;99.90;;;;;;5075748;28;20231;-67
2023/09/24 01:04:55;;;;;;;4.53;4.03;;;15.50;99.90;;;;;;5075267;28;24979;-68
2023/09/24 01:07:44;;;;;;;5.18;4.13;;;15.50;99.90;;;;;;5076718;28;20338;-69
2023/09/24 01:10:33;;;;;;;5.90;4.00;;;15.50;99.90;;;;;;5076221;28;21061;-69
2023/09/24 01:13:24;;;;;;;3.75;3.42;;;15.50;99.90;;;;;;5092351;28;20214;-66
2023/09/24 01:16:13;;;;;;;5.55;4.07;;;15.50;99.90;;;;;;5076962;28;20607;-67
2023/09/24 01:19:02;;;;;;;5.00;4.10;;;15.60;99.90;;;;;;5082228;28;20590;-66
2023/09/24 01:21:52;;;;;;;6.70;4.18;;;15.60;99.90;;;;;;5068563;28;20973;-65
2023/09/24 01:24:43;;;;;;;4.90;3.80;;;15.50;99.90;;;;;;5068065;28;20239;-66
2023/09/24 01:27:36;;;;;;;5.90;4.40;;;15.50;99.90;;;;;;5081583;28;20227;-67
2023/09/24 01:30:28;;;;;;;6.35;3.97;;;15.50;99.90;;;;;;5073175;28;21485;-67
2023/09/24 01:33:18;;;;;;;6.40;3.80;;;15.50;99.90;;;;;;5080456;28;20284;-66
2023/09/24 01:36:09;;;;;;;7.43;4.35;;;15.50;99.90;;;;;;5084775;28;20975;-66
2023/09/24 01:38:58;;;;;;;6.95;4.28;;;15.50;99.90;;;;;;5079403;28;20237;-67
2023/09/24 01:41:49;;;;;;;6.00;4.15;;;15.50;99.90;;;;;;5078513;28;20721;-68
2023/09/24 01:44:40;;;;;;;4.85;3.72;;;15.60;99.90;;;;;;5073917;28;20287;-68
2023/09/24 01:47:31;;;;;;;5.47;3.65;;;15.50;99.90;;;;;;5083911;28;20359;-67
2023/09/24 01:50:20;;;;;;;5.22;3.55;;;15.60;99.90;;;;;;5078305;27;20238;-69
2023/09/24 01:53:09;;;;;;;6.10;3.50;;;15.60;99.90;;;;;;5080268;28;20231;-67
2023/09/24 01:55:59;;;;;;;4.50;3.70;;;15.50;99.90;;;;;;5074556;28;20249;-67
2023/09/24 01:58:51;;;;;;;6.03;3.58;;;15.60;99.90;;;;;;5104910;27;20208;-67
2023/09/24 02:01:40;;;;;;;5.57;3.88;;;15.60;99.90;;;;;;5069391;28;20302;-66
2023/09/24 02:04:29;;;;;;;6.78;4.10;;;15.50;99.90;;;;;;5106501;27;20228;-67
2023/09/24 02:07:18;;;;;;;5.22;3.47;;;15.50;99.90;;;;;;5083058;28;20219;-67
2023/09/24 02:10:08;;;;;;;6.47;3.70;;;15.50;99.90;;;;;;5081696;28;20690;-68
2023/09/24 02:12:57;;;;;;;4.38;3.35;;;15.50;99.90;;;;;;5079981;28;20224;-68
2023/09/24 02:15:48;;;;;;;5.38;3.90;;;15.60;99.90;;;;;;5077385;28;20280;-68
2023/09/24 02:18:37;;;;;;;3.83;3.20;;;15.60;99.90;;;;;;5074346;28;20227;-69
2023/09/24 02:21:26;;;;;;;5.60;3.60;;;15.60;99.90;;;;;;5074896;28;20236;-69
2023/09/24 02:24:15;;;;;;;4.13;3.53;;;15.50;99.90;;;;;;5103150;27;20226;-69
2023/09/24 02:27:06;;;;;;;3.63;3.25;;;15.60;99.90;;;;;;5075590;27;20226;-68
2023/09/24 02:29:55;;;;;;;4.53;3.38;;;15.40;99.90;;;;;;5079124;28;20227;-67
2023/09/24 02:32:45;;;;;;;3.92;3.33;;;15.50;99.90;;;;;;5078805;28;20913;-69
2023/09/24 02:35:35;;;;;;;5.57;3.33;;;15.50;99.90;;;;;;5081509;28;20230;-69
2023/09/24 02:38:25;;;;;;;4.93;3.65;;;15.50;99.90;;;;;;5081732;28;20614;-68
2023/09/24 02:41:14;;;;;;;4.72;3.50;;;15.40;99.90;;;;;;5081646;28;21129;-68
2023/09/24 02:44:06;;;;;;;6.88;3.47;;;15.50;99.90;;;;;;5082223;28;20223;-68
2023/09/24 02:46:56;;;;;;;4.25;3.55;;;15.50;99.90;;;;;;5108633;27;20599;-68
2023/09/24 02:49:46;;;;;;;5.00;3.90;;;15.50;99.90;;;;;;5083490;28;20615;-68
2023/09/24 02:52:38;;;;;;;4.85;3.67;;;15.50;99.90;;;;;;5071290;28;20236;-69
2023/09/24 02:55:28;;;;;;;5.85;3.85;;;15.50;99.90;;;;;;5080055;28;20319;-68
2023/09/24 02:58:26;;;;;;;5.72;3.78;;;15.50;99.90;;;;;;5071373;28;20255;-68
2023/09/24 03:01:16;;;;;;;4.63;3.38;;;15.50;99.90;;;;;;5081753;27;20219;-68
2023/09/24 03:04:06;;;;;;;4.35;3.75;;;15.50;99.90;;;;;;5071272;28;20293;-68
2023/09/24 03:06:57;;;;;;;5.95;3.88;;;15.50;99.90;;;;;;5079110;28;20817;-67
2023/09/24 03:09:46;;;;;;;5.75;3.60;;;15.50;99.90;;;;;;5075034;28;20667;-69
2023/09/24 03:12:35;;;;;;;5.55;3.90;;;15.50;99.90;;;;;;5075345;28;20383;-69
2023/09/24 03:15:24;;;;;;;4.95;3.90;;;15.50;99.90;;;;;;5091244;28;20231;-68
2023/09/24 03:18:13;;;;;;;6.45;3.90;;;15.40;99.90;;;;;;5107181;27;20219;-68
2023/09/24 03:21:04;;;;;;;7.72;3.70;;;15.40;99.90;;;;;;5069978;28;20220;-67
2023/09/24 03:23:54;;;;;;;7.82;4.45;;;15.40;99.90;;;;;;5079527;28;20353;-67
2023/09/24 03:26:43;;;;;;;5.10;4.00;;;15.40;99.90;;;;;;5082341;28;20685;-67
2023/09/24 03:29:32;;;;;;;5.43;4.15;;;15.50;99.90;;;;;;5099238;27;20618;-67
2023/09/24 03:32:21;;;;;;;5.28;3.88;;;15.40;99.90;;;;;;5069500;28;20223;-67
2023/09/24 03:35:11;;;;;;;5.85;3.85;;;15.40;99.90;;;;;;5097659;27;20235;-68
2023/09/24 03:38:00;;;;;;;5.55;3.90;;;15.40;99.90;;;;;;5075632;28;20332;-67
2023/09/24 03:40:50;;;;;;;6.93;3.70;;;15.40;99.90;;;;;;5087833;28;20212;-69
2023/09/24 03:43:42;;;;;;;5.75;3.75;;;15.40;99.90;;;;;;5070105;28;20249;-67
2023/09/24 03:46:31;;;;;;;4.20;3.58;;;15.40;99.90;;;;;;5075823;28;20316;-67
2023/09/24 03:49:20;;;;;;;5.10;3.80;;;15.30;99.90;;;;;;5074739;28;20223;-68
2023/09/24 03:52:10;;;;;;;5.18;4.10;;;15.30;99.90;;;;;;5071261;28;20219;-67
2023/09/24 03:55:00;;;;;;;4.43;3.83;;;15.30;99.90;;;;;;5081381;28;20232;-69
2023/09/24 03:57:50;;;;;;;4.20;3.80;;;15.20;99.90;;;;;;5072853;28;20221;-67
2023/09/24 04:00:40;;;;;;;7.60;3.55;;;15.30;99.90;;;;;;5070132;28;20247;-67
2023/09/24 04:03:29;;;;;;;5.15;3.90;;;15.20;99.90;;;;;;5076439;28;20231;-66
2023/09/24 04:06:18;;;;;;;4.40;4.00;;;15.20;99.90;;;;;;5076188;28;20866;-66
2023/09/24 04:09:08;;;;;;;8.13;4.10;;;15.20;99.90;;;;;;5067565;28;20372;-69
2023/09/24 04:11:56;;;;;;;5.10;3.97;;;15.20;99.90;;;;;;5081173;28;20262;-67
2023/09/24 04:14:47;;;;;;;5.65;4.03;;;15.30;99.90;;;;;;5078249;28;20268;-67
2023/09/24 04:17:36;;;;;;;5.22;4.25;;;15.20;99.90;;;;;;5074458;28;20742;-68
2023/09/24 04:20:29;;;;;;;6.63;4.70;;;15.30;99.90;;;;;;5077119;28;20232;-67
2023/09/24 04:23:18;;;;;;;7.20;4.30;;;15.30;99.90;;;;;;5076572;28;20315;-67
2023/09/24 04:26:07;;;;;;;7.93;4.40;;;15.30;99.90;;;;;;5078738;28;20231;-66
2023/09/24 04:28:57;;;;;;;6.63;4.47;;;15.30;99.90;;;;;;5078853;28;20263;-67
2023/09/24 04:31:47;;;;;;;6.30;4.18;;;15.30;99.90;;;;;;5079848;28;20239;-69
2023/09/24 04:34:37;;;;;;;6.40;4.50;;;15.30;99.90;;;;;;5064493;28;20250;-69
2023/09/24 04:37:26;;;;;;;5.35;4.20;;;15.30;99.90;;;;;;5066147;28;20220;-69
2023/09/24 04:40:15;;;;;;;8.15;4.50;;;15.20;99.90;;;;;;5077836;28;20284;-67
2023/09/24 04:43:05;;;;;;;5.70;4.60;;;15.20;99.90;;;;;;5066532;28;20228;-69
2023/09/24 04:45:54;;;;;;;5.75;4.32;;;15.10;99.90;;;;;;5072294;28;20227;-68
2023/09/24 04:48:44;;;;;;;5.40;4.43;;;15.20;99.90;;;;;;5071131;28;20227;-69
2023/09/24 04:51:34;;;;;;;6.35;4.65;;;15.20;99.90;;;;;;5071101;28;20227;-69
2023/09/24 04:54:23;;;;;;;6.18;3.97;;;15.20;99.90;;;;;;5073208;28;20216;-67
2023/09/24 04:57:12;;;;;;;5.30;4.38;;;15.30;99.90;;;;;;5080019;28;20223;-69
2023/09/24 05:00:01;;;;;;;5.45;4.35;;;15.20;99.90;;;;;;5073357;28;20695;-67
2023/09/24 05:02:50;;;;;;;6.15;4.70;;;15.20;99.90;;;;;;5077939;27;20687;-68
2023/09/24 05:05:43;;;;;;;4.95;4.10;;;15.30;99.90;;;;;;5075698;28;20279;-69
2023/09/24 05:08:34;;;;;;;5.40;4.43;;;15.30;99.90;;;;;;5078324;28;20805;-68
2023/09/24 05:11:23;;;;;;;12.25;5.53;;;15.30;99.90;;;;;;5073122;28;20247;-68
2023/09/24 05:14:12;;;;;;;4.90;4.40;;;15.30;99.90;;;;;;5075713;28;20215;-68
2023/09/24 05:17:00;;;;;;;5.95;4.30;;;15.20;99.90;;;;;;5075188;28;20219;-68
2023/09/24 05:19:49;;;;;;;8.05;4.40;;;15.20;99.90;;;;;;5081081;28;20234;-68
2023/09/24 05:22:40;;;;;;;5.78;4.20;;;15.20;99.90;;;;;;5072177;28;20297;-71
2023/09/24 05:25:29;;;;;;;6.38;4.75;;;15.30;99.90;;;;;;5076322;28;20235;-68
2023/09/24 05:28:18;;;;;;;6.85;4.63;;;15.30;99.90;;;;;;5071756;28;20366;-69
2023/09/24 05:31:07;;;;;;;6.10;4.80;;;15.20;99.90;;;;;;5077259;28;20694;-67
2023/09/24 05:33:57;;;;;;;6.10;4.65;;;15.40;99.90;;;;;;5080665;28;20996;-67
2023/09/24 05:36:46;;;;;;;7.50;4.65;;;15.40;99.90;;;;;;5075365;28;20330;-67
2023/09/24 05:39:36;;;;;;;7.28;4.75;;;15.40;99.90;;;;;;5063764;28;20225;-70
2023/09/24 05:42:24;;;;;;;5.32;4.47;;;15.50;99.90;;;;;;5076730;28;20268;-68
2023/09/24 05:45:14;;;;;;;6.53;4.75;;;15.50;99.90;;;;;;5090152;28;20212;-70
2023/09/24 05:48:03;;;;;;;6.35;4.38;;;15.50;99.90;;;;;;5078287;28;20381;-70
2023/09/24 05:50:53;;;;;;;7.60;4.72;;;15.40;99.90;;;;;;5084127;28;20231;-68
2023/09/24 05:53:42;;;;;;;9.90;5.00;;;15.50;99.90;;;;;;5078616;28;20217;-67
2023/09/24 05:56:32;;;;;;;6.38;4.90;;;15.50;99.90;;;;;;5088690;28;20227;-65
2023/09/24 05:59:21;;;;;;;6.47;5.55;;;15.50;99.90;;;;;;5078621;28;20212;-65
2023/09/24 06:02:10;;;;;;;7.63;4.75;;;15.60;99.90;;;;;;5074652;28;20359;-67
2023/09/24 06:05:00;;;;;;;6.80;5.10;;;15.70;99.90;;;;;;5077538;28;20281;-68
2023/09/24 06:07:49;;;;;;;5.60;4.80;;;15.80;99.90;;;;;;5082574;28;20781;-68
2023/09/24 06:10:43;;;;;;;5.55;4.57;;;15.80;99.90;;;;;;5073903;28;20224;-67
2023/09/24 06:13:34;;;;;;;7.20;5.22;;;15.90;99.90;;;;;;5077156;28;20222;-68
2023/09/24 06:16:23;;;;;;;5.28;4.78;;;15.90;99.90;;;;;;5076231;28;20314;-66
2023/09/24 06:19:12;;;;;;;5.90;5.20;;;16.00;99.90;;;;;;5082878;28;20281;-68
2023/09/24 06:22:01;;;;;;;8.23;5.40;;;16.00;99.90;;;;;;5078362;28;20338;-68
2023/09/24 06:24:51;;;;;;;6.30;4.93;;;16.10;99.90;;;;;;5074503;28;20235;-68
2023/09/24 06:27:41;;;;;;;7.50;5.18;;;16.10;99.90;;;;;;5103340;27;20784;-69
2023/09/24 06:30:31;;;;;;;7.00;6.03;;;16.20;99.90;;;;;;5072446;28;20212;-70
2023/09/24 06:33:20;;;;;;;6.82;4.97;;;16.30;99.90;;;;;;5067238;28;20216;-69
2023/09/24 06:36:09;;;;;;;6.70;5.28;;;16.30;99.90;;;;;;5082945;28;20232;-68
2023/09/24 06:38:59;;;;;;;7.22;5.07;;;16.40;99.90;;;;;;5099238;27;20234;-70
2023/09/24 06:41:48;;;;;;;6.28;4.80;;;16.50;99.90;;;;;;5077245;28;21020;-68
2023/09/24 06:44:38;;;;;;;6.47;5.50;;;16.60;99.90;;;;;;5093762;27;20235;-69
2023/09/24 06:47:31;;;;;;;6.28;5.22;;;16.50;99.90;;;;;;5071407;28;20220;-68
2023/09/24 06:50:20;;;;;;;7.20;5.53;;;16.60;99.90;;;;;;5065901;28;20212;-68
2023/09/24 06:53:09;;;;;;;6.53;5.00;;;16.70;99.90;;;;;;5095237;27;20228;-69
2023/09/24 06:55:58;;;;;;;5.72;5.15;;;16.70;99.90;;;;;;5074136;28;20220;-68
2023/09/24 06:58:47;;;;;;;5.88;5.18;;;16.90;99.90;;;;;;5099834;27;20228;-69
2023/09/24 07:01:36;;;;;;;6.45;4.70;;;17.10;99.90;;;;;;5075755;28;20220;-70
2023/09/24 07:04:27;;;;;;;6.50;4.80;;;17.10;99.90;;;;;;5064308;28;20630;-68
2023/09/24 07:07:16;;;;;;;6.40;4.53;;;17.10;99.90;;;;;;5068123;28;20223;-69
2023/09/24 07:10:07;;;;;;;5.03;4.53;;;17.10;99.90;;;;;;5071770;28;20227;-69
2023/09/24 07:12:56;;;;;;;6.43;5.00;;;17.00;99.90;;;;;;5098017;27;20219;-68
2023/09/24 07:15:44;;;;;;;5.53;4.65;;;17.10;99.90;;;;;;5068916;28;20630;-67
2023/09/24 07:18:33;;;;;;;5.25;4.68;;;17.10;99.90;;;;;;5082122;28;20231;-69
2023/09/24 07:21:26;;;;;;;5.75;4.45;;;17.00;99.90;;;;;;5074775;28;20698;-69
2023/09/24 07:24:24;;;;;;;7.05;4.60;;;16.90;99.90;;;;;;5078015;28;20223;-68
2023/09/24 07:27:13;;;;;;;7.78;4.47;;;17.20;99.90;;;;;;5076909;28;20306;-67
2023/09/24 07:30:02;;;;;;;5.00;4.50;;;17.30;99.90;;;;;;5087035;28;20358;-68
2023/09/24 07:32:51;;;;;;;5.80;4.75;;;17.30;99.90;;;;;;5076118;28;20220;-69
2023/09/24 07:35:40;;;;;;;7.05;4.47;;;17.40;99.90;;;;;;5073992;28;20224;-69
2023/09/24 07:38:31;;;;;;;4.50;4.10;;;17.50;99.90;;;;;;5071278;28;20231;-70
2023/09/24 07:41:20;;;;;;;6.25;4.43;;;17.50;99.90;;;;;;5083996;27;20259;-68
2023/09/24 07:44:09;;;;;;;7.03;4.50;;;17.40;99.90;;;;;;5071159;28;20342;-68
2023/09/24 07:46:58;;;;;;;4.63;4.20;;;17.50;99.90;;;;;;5074117;28;20335;-68
2023/09/24 07:49:47;;;;;;;4.30;3.90;;;17.60;99.90;;;;;;5075122;28;20232;-67
2023/09/24 07:52:36;;;;;;;4.65;3.88;;;17.60;99.90;;;;;;5083593;28;20220;-72
2023/09/24 07:55:27;;;;;;;5.68;4.10;;;17.70;99.90;;;;;;5105536;27;21046;-69
2023/09/24 07:58:16;;;;;;;7.40;4.60;;;17.80;99.90;;;;;;5084660;28;20239;-68
2023/09/24 08:01:07;;;;;;;5.68;4.32;;;17.90;99.90;;;;;;5076065;28;20227;-70
2023/09/24 08:03:56;;;;;;;6.03;4.38;;;17.90;99.90;;;;;;5078362;27;20264;-69
2023/09/24 08:06:46;;;;;;;5.47;3.95;;;17.90;99.90;;;;;;5067945;28;20307;-69
2023/09/24 08:09:38;;;;;;;8.18;4.03;;;18.10;99.90;;;;;;5069170;28;20232;-71
2023/09/24 08:12:29;;;;;;;6.63;4.38;;;18.10;99.90;;;;;;5079248;28;20227;-70
2023/09/24 08:15:18;;;;;;;4.97;3.78;;;18.50;99.90;;;;;;5081809;27;20226;-69
2023/09/24 08:18:09;;;;;;;5.60;3.88;;;18.60;99.90;;;;;;5068815;28;20223;-68
2023/09/24 08:20:59;;;;;;;5.07;3.67;;;18.70;99.90;;;;;;5097459;27;20392;-68
2023/09/24 08:23:48;;;;;;;5.65;3.95;;;18.80;99.90;;;;;;5052602;28;20228;-68
2023/09/24 08:26:37;;;;;;;4.90;3.60;;;18.90;99.90;;;;;;5076034;28;20227;-68
2023/09/24 08:29:28;;;;;;;5.47;3.60;;;19.30;99.90;;;;;;5075391;28;20223;-68
2023/09/24 08:32:17;;;;;;;5.88;3.58;;;19.40;99.90;;;;;;5073236;28;20319;-70
2023/09/24 08:35:06;;;;;;;5.53;4.00;;;19.40;99.90;;;;;;5071296;28;20219;-68
2023/09/24 08:37:55;;;;;;;5.18;3.33;;;19.30;99.90;;;;;;5038269;28;20227;-70
2023/09/24 08:40:44;;;;;;;3.90;3.40;;;19.30;99.90;;;;;;5053023;28;20840;-67
2023/09/24 08:43:34;;;;;;;4.25;3.63;;;19.50;99.90;;;;;;5067946;28;20227;-68
2023/09/24 08:46:25;;;;;;;6.50;3.78;;;19.90;99.90;;;;;;5051970;28;20224;-70
2023/09/24 08:49:14;;;;;;;5.90;2.85;;;20.10;99.90;;;;;;5040665;28;20622;-69
2023/09/24 08:52:04;;;;;;;4.28;2.80;;;20.60;99.90;;;;;;5058252;28;20231;-69
2023/09/24 08:54:53;;;;;;;4.22;2.83;;;20.50;99.90;;;;;;5055582;28;20227;-69
2023/09/24 08:57:45;;;;;;;3.35;2.70;;;20.50;99.90;;;;;;5046586;28;20261;-69
2023/09/24 09:00:34;;;;;;;4.75;2.85;;;20.20;99.90;;;;;;5049377;28;20250;-69
2023/09/24 09:03:24;;;;;;;3.42;2.40;;;20.20;99.90;;;;;;5045481;28;20216;-68
2023/09/24 09:06:31;;;;;;;3.22;2.50;;;20.20;99.90;;;;;;5041948;28;20286;-70
2023/09/24 09:09:28;;;;;;;4.60;2.30;;;20.10;99.90;;;;;;5057332;28;20235;-69
2023/09/24 09:12:20;;;;;;;4.55;2.20;;;20.10;99.90;;;;;;5043115;28;20335;-70
2023/09/24 09:15:17;;;;;;;4.70;2.60;;;20.00;99.90;;;;;;5034731;28;20224;-70
2023/09/24 09:18:08;;;;;;;3.03;2.50;;;20.10;99.90;;;;;;5058009;28;20249;-70
2023/09/24 09:20:59;;;;;;;6.10;3.22;;;20.10;99.90;;;;;;5059609;28;20832;-70
2023/09/24 09:23:49;;;;;;;2.78;2.45;;;20.20;99.90;;;;;;5059873;28;20212;-71
2023/09/24 09:26:38;;;;;;;4.85;2.50;;;20.20;99.90;;;;;;5040469;28;20243;-71
2023/09/24 09:29:29;;;;;;;4.75;2.65;;;20.20;99.90;;;;;;5068502;28;20212;-71
2023/09/24 09:32:18;;;;;;;2.90;2.05;;;20.20;99.90;;;;;;5042579;28;20689;-71
2023/09/24 09:35:08;;;;;;;4.15;2.30;;;20.30;99.90;;;;;;5050577;28;20224;-69
2023/09/24 09:38:12;;;;;;;3.42;2.10;;;20.30;99.90;;;;;;5060301;28;20655;-71
2023/09/24 09:41:02;;;;;;;2.20;2.00;;;20.30;99.90;;;;;;5075339;28;20218;-70
2023/09/24 09:43:53;;;;;;;2.35;2.03;;;20.20;99.90;;;;;;5077894;28;20311;-70
2023/09/24 09:46:45;;;;;;;3.83;2.30;;;20.10;99.90;;;;;;5072673;28;20327;-70
2023/09/24 09:49:41;;;;;;;2.47;1.77;;;20.00;99.90;;;;;;5094736;28;20258;-69
2023/09/24 09:52:34;;;;;;;4.93;1.90;;;20.10;99.90;;;;;;5078813;28;20215;-71
2023/09/24 09:55:25;;;;;;;3.15;2.00;;;20.20;99.90;;;;;;5073970;28;20219;-70
2023/09/24 09:58:16;;;;;;;2.88;2.00;;;20.10;99.90;;;;;;5079208;28;20307;-70
2023/09/24 10:01:12;;;;;;;3.05;1.92;;;20.20;99.90;;;;;;5085518;27;20228;-70
2023/09/24 10:04:03;;;;;;;3.65;1.70;;;20.20;99.90;;;;;;5075745;28;20321;-70
2023/09/24 10:06:52;;;;;;;2.22;1.55;;;20.40;99.90;;;;;;5074358;28;20223;-69
2023/09/24 10:09:41;;;;;;;4.55;1.50;;;20.50;99.90;;;;;;5086765;28;20322;-70
2023/09/24 10:12:38;;;;;;;3.78;1.40;;;20.40;99.90;;;;;;5077915;28;20218;-68
2023/09/24 10:15:31;;;;;;;2.60;1.63;;;20.30;99.90;;;;;;5077359;28;20227;-70
2023/09/24 10:18:24;;;;;;;3.17;1.60;;;20.40;99.90;;;;;;5070932;28;20222;-70
2023/09/24 10:21:30;;;;;;;3.40;1.45;;;20.20;99.90;;;;;;5090406;28;20863;-69
2023/09/24 10:24:48;;;;;;;2.53;1.65;;;20.20;99.90;;;;;;5101400;27;20354;-71
2023/09/24 10:28:02;;;;;;;1.90;1.40;;;20.00;99.90;;;;;;5083966;28;20223;-69
2023/09/24 10:31:06;;;;;;;3.17;1.73;;;20.10;99.90;;;;;;5081790;28;20223;-70
2023/09/24 10:33:57;;;;;;;1.90;1.30;;;20.00;99.90;;;;;;5077618;28;20224;-69
2023/09/24 10:36:47;;;;;;;2.00;1.20;;;19.90;99.90;;;;;;5077999;28;20751;-67
2023/09/24 10:40:05;;;;;;;1.98;1.13;;;19.80;99.90;;;;;;5076062;28;20215;-70
2023/09/24 10:43:17;;;;;;;1.98;1.10;;;20.00;99.90;;;;;;5078844;28;20228;-70
2023/09/24 10:46:31;;;;;;;3.15;1.38;;;20.00;99.90;;;;;;5099497;27;20227;-69
2023/09/24 10:49:21;;;;;;;1.88;1.15;;;19.40;99.90;;;;;;5072009;28;20215;-71
2023/09/24 10:52:10;;;;;;;1.70;1.10;;;19.40;99.90;;;;;;5076847;28;20271;-69
2023/09/24 10:54:59;;;;;;;3.38;1.38;;;19.20;99.90;;;;;;5075372;28;20231;-65
2023/09/24 10:57:50;;;;;;;1.95;1.20;;;18.90;99.90;;;;;;5073264;28;21033;-67
2023/09/24 11:00:41;;;;;;;2.17;1.20;;;19.20;99.90;;;;;;5072333;28;20867;-67
2023/09/24 11:03:35;;;;;;;2.88;1.48;;;19.20;99.90;;;;;;5080320;28;20254;-67
2023/09/24 11:06:30;;;;;;;1.27;0.95;;;19.30;99.90;;;;;;5075866;28;20388;-67
2023/09/24 11:09:21;;;;;;;6.20;1.50;;;19.20;99.90;;;;;;5080789;28;20226;-69
2023/09/24 11:12:10;;;;;;;3.00;1.30;;;19.20;99.90;;;;;;5105067;27;20265;-66
2023/09/24 11:15:00;;;;;;;1.67;1.20;;;19.10;99.90;;;;;;5073539;28;20227;-67
2023/09/24 11:18:05;;;;;;;4.30;1.40;;;19.20;99.90;;;;;;5073098;28;20317;-67
2023/09/24 11:20:54;;;;;;;2.88;1.40;;;19.30;99.90;;;;;;5072615;28;20227;-68
2023/09/24 11:23:44;;;;;;;1.90;1.30;;;19.40;99.90;;;;;;5067889;28;20232;-69
2023/09/24 11:26:33;;;;;;;1.60;1.10;;;19.40;99.90;;;;;;5070721;28;20590;-70
2023/09/24 11:29:23;;;;;;;2.60;1.30;;;19.20;99.90;;;;;;5069898;28;20886;-68
2023/09/24 11:32:24;;;;;;;1.85;1.20;;;19.50;99.90;;;;;;5093875;27;20225;-69
2023/09/24 11:35:16;;;;;;;1.52;1.13;;;19.40;99.90;;;;;;5075324;28;20782;-69
2023/09/24 11:38:05;;;;;;;2.17;1.13;;;19.50;99.90;;;;;;5071250;28;20683;-69
2023/09/24 11:41:05;;;;;;;1.23;1.00;;;19.60;99.90;;;;;;5071171;28;20261;-67
2023/09/24 11:43:57;;;;;;;3.42;1.45;;;19.50;99.90;;;;;;5068976;28;20228;-68
2023/09/24 11:46:46;;;;;;;4.05;1.27;;;19.50;99.90;;;;;;5078714;28;20337;-69
2023/09/24 11:49:35;;;;;;;1.90;1.15;;;19.70;99.90;;;;;;5068188;28;20234;-70
2023/09/24 11:52:27;;;;;;;3.80;1.15;;;19.60;99.90;;;;;;5077892;27;20320;-68
2023/09/24 11:55:17;;;;;;;1.50;1.20;;;19.70;99.90;;;;;;5074895;28;20216;-68
2023/09/24 11:58:07;;;;;;;3.58;1.10;;;19.80;99.90;;;;;;5087390;27;20303;-68
2023/09/24 12:00:56;;;;;;;4.18;1.20;;;20.00;99.90;;;;;;5076332;28;20653;-69
2023/09/24 12:03:46;;;;;;;2.88;1.10;;;20.20;99.90;;;;;;5072404;28;20224;-67
2023/09/24 12:06:36;;;;;;;1.65;1.27;;;20.30;99.90;;;;;;5094303;27;20647;-69
2023/09/24 12:09:29;;;;;;;1.75;1.10;;;20.30;99.90;;;;;;5075782;28;20218;-68
2023/09/24 12:12:19;;;;;;;1.92;1.13;;;20.20;99.90;;;;;;5075217;28;20219;-68
2023/09/24 12:15:09;;;;;;;2.35;1.00;;;20.20;99.90;;;;;;5073151;28;22115;-69
2023/09/24 12:17:59;;;;;;;5.97;1.60;;;20.20;99.90;;;;;;5069668;28;20766;-70
2023/09/24 12:20:48;;;;;;;2.95;1.60;;;20.30;99.90;;;;;;5072539;28;20227;-69
2023/09/24 12:23:37;;;;;;;2.22;1.48;;;20.30;99.90;;;;;;5092844;27;20341;-68
2023/09/24 12:26:27;;;;;;;2.35;1.55;;;20.10;99.90;;;;;;5070899;28;20947;-68
2023/09/24 12:29:16;;;;;;;2.17;1.40;;;20.20;99.90;;;;;;5065640;28;20249;-68
2023/09/24 12:32:05;;;;;;;3.78;2.10;;;20.10;99.90;;;;;;5088571;27;20693;-69
2023/09/24 12:34:54;;;;;;;2.40;1.50;;;20.40;99.90;;;;;;5079542;28;20300;-69
2023/09/24 12:37:43;;;;;;;2.63;1.48;;;20.50;99.90;;;;;;5074710;28;20722;-69
2023/09/24 12:40:32;;;;;;;2.50;1.40;;;20.40;99.90;;;;;;5073566;28;20230;-69
2023/09/24 12:43:23;;;;;;;3.17;1.20;;;20.50;99.90;;;;;;5101010;27;20258;-70
2023/09/24 12:46:12;;;;;;;2.17;1.20;;;20.30;99.90;;;;;;5074112;28;20222;-68
2023/09/24 12:49:01;;;;;;;1.70;1.30;;;20.10;99.90;;;;;;5075907;28;20239;-67
2023/09/24 12:51:50;;;;;;;1.77;1.20;;;20.10;99.90;;;;;;5073681;28;20757;-70
2023/09/24 12:54:39;;;;;;;2.90;1.20;;;20.20;99.90;;;;;;5072129;28;20223;-70
2023/09/24 12:57:31;;;;;;;2.25;1.30;;;20.40;99.90;;;;;;5077592;28;20219;-68
2023/09/24 13:00:22;;;;;;;1.80;1.00;;;20.40;99.90;;;;;;5075367;28;20300;-68
2023/09/24 13:03:11;;;;;;;1.85;1.10;;;20.20;99.90;;;;;;5072230;28;20485;-69
2023/09/24 13:06:00;;;;;;;2.65;1.00;;;20.00;99.90;;;;;;5097621;28;20223;-70
2023/09/24 13:08:50;;;;;;;3.83;0.90;;;19.80;99.90;;;;;;5076147;28;20361;-68
2023/09/24 13:11:39;;;;;;;2.45;1.10;;;19.60;99.90;;;;;;5098587;28;20229;-70
2023/09/24 13:14:30;;;;;;;1.27;0.90;;;19.50;99.90;;;;;;5075543;28;20518;-69
2023/09/24 13:17:21;;;;;;;2.15;1.20;;;19.40;99.90;;;;;;5084014;27;20228;-67
2023/09/24 13:20:11;;;;;;;1.83;1.02;;;19.40;99.90;;;;;;5076937;28;20274;-69
2023/09/24 13:23:00;;;;;;;2.95;1.10;;;19.40;99.90;;;;;;5070112;28;20226;-68
2023/09/24 13:25:49;;;;;;;2.03;1.02;;;19.40;99.90;;;;;;5069267;28;20231;-68
2023/09/24 13:28:38;;;;;;;2.35;1.00;;;19.30;99.90;;;;;;5094759;28;20219;-68
2023/09/24 13:31:27;;;;;;;2.88;1.13;;;19.30;99.90;;;;;;5073214;28;20580;-69
2023/09/24 13:34:18;;;;;;;2.65;0.93;;;19.30;99.90;;;;;;5068509;28;20737;-68
2023/09/24 13:37:07;;;;;;;2.03;1.00;;;19.30;99.90;;;;;;5060869;28;20235;-69
2023/09/24 13:39:56;;;;;;;2.55;1.20;;;19.40;99.90;;;;;;5101210;28;20236;-68
2023/09/24 13:42:44;;;;;;;3.30;1.52;;;19.30;99.90;;;;;;5074052;28;20228;-68
2023/09/24 13:45:39;;;;;;;3.25;1.48;;;19.40;99.90;;;;;;5067513;28;20308;-68
2023/09/24 13:48:30;;;;;;;4.03;1.50;;;19.40;99.90;;;;;;5074091;28;20499;-69
2023/09/24 13:51:20;;;;;;;1.73;0.80;;;19.50;99.90;;;;;;5065879;28;20212;-68
2023/09/24 13:54:10;;;;;;;4.00;1.15;;;19.50;99.90;;;;;;5057091;28;20319;-69
2023/09/24 13:56:59;;;;;;;2.90;1.05;;;19.50;99.90;;;;;;5070192;28;20309;-70
2023/09/24 13:59:49;;;;;;;1.55;0.90;;;19.50;99.90;;;;;;5083620;28;20228;-68
2023/09/24 14:02:42;;;;;;;2.63;1.00;;;19.50;99.90;;;;;;5066571;28;20219;-68
2023/09/24 14:05:33;;;;;;;3.05;1.10;;;19.60;99.90;;;;;;5085087;28;20216;-69
2023/09/24 14:14:37;;;;;;;3.13;1.08;;;19.60;99.90;;;;;;5073156;28;20709;-68
2023/09/24 14:17:26;;;;;;;2.53;0.90;;;19.60;99.90;;;;;;5078496;28;20224;-67
2023/09/24 14:20:16;;;;;;;1.88;0.93;;;19.50;99.90;;;;;;5072451;28;20220;-68
2023/09/24 14:23:05;;;;;;;1.80;1.00;;;19.40;99.90;;;;;;5076039;28;20235;-68
2023/09/24 14:25:55;;;;;;;1.42;0.90;;;19.40;99.90;;;;;;5074362;28;20223;-67
2023/09/24 14:28:44;;;;;;;1.98;0.93;;;19.50;99.90;;;;;;5103054;27;21420;-69
2023/09/24 14:31:34;;;;;;;2.42;0.95;;;19.50;99.90;;;;;;5074799;28;20235;-67
2023/09/24 14:34:23;;;;;;;2.00;0.95;;;19.40;99.90;;;;;;5073550;28;20587;-67
2023/09/24 14:37:13;;;;;;;1.98;1.20;;;19.40;99.90;;;;;;5071239;28;20227;-66
2023/09/24 14:40:03;;;;;;;1.25;0.95;;;19.40;99.90;;;;;;5077231;28;20219;-66
2023/09/24 14:42:54;;;;;;;3.67;1.08;;;19.40;99.90;;;;;;5089827;27;20222;-66
2023/09/24 14:45:43;;;;;;;1.25;0.98;;;19.50;99.90;;;;;;5072637;28;20216;-66
2023/09/24 14:48:32;;;;;;;1.88;1.10;;;19.40;99.90;;;;;;5070743;28;20226;-66
2023/09/24 14:51:21;;;;;;;1.05;0.93;;;19.40;99.90;;;;;;5080335;28;20253;-65
2023/09/24 14:54:11;;;;;;;3.65;1.23;;;19.40;99.90;;;;;;5068887;28;20272;-66
2023/09/24 14:57:00;;;;;;;2.38;1.30;;;19.40;99.90;;;;;;5077627;28;20224;-68